sensor_id;sensor_type;location;lat;lon;timestamp;pressure;altitude;pressure_sealevel;temperature;humidity
76827;BME280;65788;52.284;20.890;2023-05-19T00:01:24;101571.64;;;21.52;39.73
76827;BME280;65788;52.284;20.890;2023-05-19T00:03:53;101570.44;;;21.49;39.82
76827;BME280;65788;52.284;20.890;2023-05-19T00:06:25;101570.33;;;21.44;39.91
76827;BME280;65788;52.284;20.890;2023-05-19T00:11:25;101562.23;;;21.43;39.76
76827;BME280;65788;52.284;20.890;2023-05-19T00:13:54;101566.24;;;21.40;39.98
76827;BME280;65788;52.284;20.890;2023-05-19T00:16:24;101564.21;;;21.36;39.92
76827;BME280;65788;52.284;20.890;2023-05-19T00:18:52;101558.75;;;21.32;39.99
76827;BME280;65788;52.284;20.890;2023-05-19T00:21:19;101565.70;;;21.33;39.80
76827;BME280;65788;52.284;20.890;2023-05-19T00:23:47;101565.65;;;21.31;39.85
76827;BME280;65788;52.284;20.890;2023-05-19T00:26:14;101562.23;;;21.27;40.08
76827;BME280;65788;52.284;20.890;2023-05-19T00:28:41;101559.89;;;21.25;39.99
76827;BME280;65788;52.284;20.890;2023-05-19T00:31:08;101557.86;;;21.21;40.29
76827;BME280;65788;52.284;20.890;2023-05-19T00:33:34;101560.26;;;21.20;40.00
76827;BME280;65788;52.284;20.890;2023-05-19T00:36:02;101559.89;;;21.17;40.34
76827;BME280;65788;52.284;20.890;2023-05-19T00:38:33;101562.67;;;21.16;40.51
76827;BME280;65788;52.284;20.890;2023-05-19T00:41:02;101564.92;;;21.14;40.89
76827;BME280;65788;52.284;20.890;2023-05-19T00:43:30;101568.07;;;21.08;41.89
76827;BME280;65788;52.284;20.890;2023-05-19T00:45:57;101566.66;;;21.03;42.11
76827;BME280;65788;52.284;20.890;2023-05-19T00:48:24;101563.27;;;20.94;42.39
76827;BME280;65788;52.284;20.890;2023-05-19T00:50:52;101563.02;;;20.86;42.67
76827;BME280;65788;52.284;20.890;2023-05-19T00:53:21;101557.80;;;20.85;42.75
76827;BME280;65788;52.284;20.890;2023-05-19T00:55:49;101559.44;;;20.83;42.85
76827;BME280;65788;52.284;20.890;2023-05-19T00:58:20;101562.06;;;20.80;42.92
76827;BME280;65788;52.284;20.890;2023-05-19T01:00:49;101556.55;;;20.78;42.95
76827;BME280;65788;52.284;20.890;2023-05-19T01:03:16;101560.30;;;20.79;42.91
76827;BME280;65788;52.284;20.890;2023-05-19T01:05:46;101555.37;;;20.75;42.94
76827;BME280;65788;52.284;20.890;2023-05-19T01:08:19;101555.02;;;20.72;42.95
76827;BME280;65788;52.284;20.890;2023-05-19T01:10:46;101552.48;;;20.71;42.94
76827;BME280;65788;52.284;20.890;2023-05-19T01:13:13;101549.77;;;20.70;42.92
76827;BME280;65788;52.284;20.890;2023-05-19T01:15:55;101545.80;;;20.68;42.95
76827;BME280;65788;52.284;20.890;2023-05-19T01:18:46;101543.19;;;20.64;43.00
76827;BME280;65788;52.284;20.890;2023-05-19T01:23:53;101543.59;;;20.59;43.04
76827;BME280;65788;52.284;20.890;2023-05-19T01:31:50;101539.81;;;20.57;43.05
76827;BME280;65788;52.284;20.890;2023-05-19T01:34:20;101539.88;;;20.55;43.08
76827;BME280;65788;52.284;20.890;2023-05-19T01:36:50;101541.27;;;20.51;43.13
76827;BME280;65788;52.284;20.890;2023-05-19T01:39:17;101543.76;;;20.52;43.10
76827;BME280;65788;52.284;20.890;2023-05-19T01:41:45;101536.02;;;20.50;43.13
76827;BME280;65788;52.284;20.890;2023-05-19T01:44:13;101543.17;;;20.50;43.11
76827;BME280;65788;52.284;20.890;2023-05-19T01:46:42;101536.17;;;20.51;43.06
76827;BME280;65788;52.284;20.890;2023-05-19T01:49:09;101539.06;;;20.48;43.12
76827;BME280;65788;52.284;20.890;2023-05-19T01:51:37;101534.89;;;20.46;43.11
76827;BME280;65788;52.284;20.890;2023-05-19T01:54:04;101534.41;;;20.44;43.14
76827;BME280;65788;52.284;20.890;2023-05-19T01:59:45;101528.70;;;20.41;43.17
76827;BME280;65788;52.284;20.890;2023-05-19T02:02:47;101526.79;;;20.37;43.23
76827;BME280;65788;52.284;20.890;2023-05-19T02:08:33;101527.81;;;20.36;43.20
76827;BME280;65788;52.284;20.890;2023-05-19T02:11:31;101526.19;;;20.36;43.19
76827;BME280;65788;52.284;20.890;2023-05-19T02:14:02;101524.88;;;20.33;43.27
76827;BME280;65788;52.284;20.890;2023-05-19T02:16:32;101522.69;;;20.33;43.22
76827;BME280;65788;52.284;20.890;2023-05-19T02:18:59;101527.98;;;20.32;43.25
76827;BME280;65788;52.284;20.890;2023-05-19T02:21:26;101527.26;;;20.31;43.21
76827;BME280;65788;52.284;20.890;2023-05-19T02:23:54;101530.36;;;20.30;43.20
76827;BME280;65788;52.284;20.890;2023-05-19T02:26:21;101525.23;;;20.28;43.26
76827;BME280;65788;52.284;20.890;2023-05-19T02:28:48;101528.16;;;20.28;43.32
76827;BME280;65788;52.284;20.890;2023-05-19T02:31:15;101528.20;;;20.26;43.37
76827;BME280;65788;52.284;20.890;2023-05-19T02:33:42;101527.33;;;20.25;43.36
76827;BME280;65788;52.284;20.890;2023-05-19T02:36:08;101524.55;;;20.25;43.35
76827;BME280;65788;52.284;20.890;2023-05-19T02:38:35;101524.00;;;20.25;43.36
76827;BME280;65788;52.284;20.890;2023-05-19T02:41:03;101525.55;;;20.22;43.32
76827;BME280;65788;52.284;20.890;2023-05-19T02:43:30;101523.50;;;20.23;43.33
76827;BME280;65788;52.284;20.890;2023-05-19T02:45:56;101528.41;;;20.22;43.34
76827;BME280;65788;52.284;20.890;2023-05-19T02:48:23;101526.61;;;20.20;43.36
76827;BME280;65788;52.284;20.890;2023-05-19T02:50:50;101528.61;;;20.20;43.35
76827;BME280;65788;52.284;20.890;2023-05-19T02:53:17;101528.80;;;20.20;43.35
76827;BME280;65788;52.284;20.890;2023-05-19T02:55:44;101530.91;;;20.19;43.38
76827;BME280;65788;52.284;20.890;2023-05-19T02:58:11;101530.61;;;20.19;43.39
76827;BME280;65788;52.284;20.890;2023-05-19T03:00:38;101529.69;;;20.17;43.42
76827;BME280;65788;52.284;20.890;2023-05-19T03:03:05;101534.48;;;20.15;43.44
76827;BME280;65788;52.284;20.890;2023-05-19T03:05:32;101531.22;;;20.15;43.46
76827;BME280;65788;52.284;20.890;2023-05-19T03:07:59;101533.79;;;20.15;43.49
76827;BME280;65788;52.284;20.890;2023-05-19T03:10:26;101532.16;;;20.13;43.45
76827;BME280;65788;52.284;20.890;2023-05-19T03:12:53;101532.50;;;20.15;43.46
76827;BME280;65788;52.284;20.890;2023-05-19T03:15:20;101530.05;;;20.14;43.48
76827;BME280;65788;52.284;20.890;2023-05-19T03:17:48;101532.01;;;20.13;43.48
76827;BME280;65788;52.284;20.890;2023-05-19T03:20:16;101528.80;;;20.12;43.52
76827;BME280;65788;52.284;20.890;2023-05-19T03:22:43;101528.24;;;20.11;43.53
76827;BME280;65788;52.284;20.890;2023-05-19T03:25:10;101535.00;;;20.11;43.54
76827;BME280;65788;52.284;20.890;2023-05-19T03:27:37;101532.55;;;20.10;43.59
76827;BME280;65788;52.284;20.890;2023-05-19T03:30:05;101531.89;;;20.08;43.65
76827;BME280;65788;52.284;20.890;2023-05-19T03:32:34;101532.91;;;20.07;43.61
76827;BME280;65788;52.284;20.890;2023-05-19T03:35:04;101535.21;;;20.06;43.66
76827;BME280;65788;52.284;20.890;2023-05-19T03:37:31;101535.80;;;20.06;43.65
76827;BME280;65788;52.284;20.890;2023-05-19T03:39:59;101541.03;;;20.07;43.66
76827;BME280;65788;52.284;20.890;2023-05-19T03:42:25;101544.38;;;20.07;43.68
76827;BME280;65788;52.284;20.890;2023-05-19T03:44:52;101543.23;;;20.06;43.68
76827;BME280;65788;52.284;20.890;2023-05-19T03:47:19;101541.83;;;20.05;43.72
76827;BME280;65788;52.284;20.890;2023-05-19T03:49:49;101542.20;;;20.04;43.74
76827;BME280;65788;52.284;20.890;2023-05-19T03:52:16;101540.96;;;20.05;43.68
76827;BME280;65788;52.284;20.890;2023-05-19T03:54:42;101538.86;;;20.04;43.69
76827;BME280;65788;52.284;20.890;2023-05-19T03:57:10;101534.51;;;20.05;43.73
76827;BME280;65788;52.284;20.890;2023-05-19T03:59:37;101532.20;;;20.04;43.75
76827;BME280;65788;52.284;20.890;2023-05-19T04:02:08;101537.19;;;20.03;43.77
76827;BME280;65788;52.284;20.890;2023-05-19T04:04:55;101533.13;;;20.03;43.80
76827;BME280;65788;52.284;20.890;2023-05-19T04:07:43;101537.90;;;20.01;43.85
76827;BME280;65788;52.284;20.890;2023-05-19T04:10:12;101537.85;;;20.02;43.83
76827;BME280;65788;52.284;20.890;2023-05-19T04:12:39;101541.67;;;20.02;43.79
76827;BME280;65788;52.284;20.890;2023-05-19T04:15:07;101538.04;;;20.02;43.84
76827;BME280;65788;52.284;20.890;2023-05-19T04:17:36;101537.22;;;20.01;43.83
76827;BME280;65788;52.284;20.890;2023-05-19T04:20:04;101534.83;;;20.01;43.83
76827;BME280;65788;52.284;20.890;2023-05-19T04:22:32;101537.16;;;20.00;43.87
76827;BME280;65788;52.284;20.890;2023-05-19T04:24:59;101533.46;;;19.99;43.90
76827;BME280;65788;52.284;20.890;2023-05-19T04:27:26;101537.29;;;20.01;43.88
76827;BME280;65788;52.284;20.890;2023-05-19T04:29:54;101533.98;;;19.99;43.92
76827;BME280;65788;52.284;20.890;2023-05-19T04:32:21;101532.22;;;19.98;43.92
76827;BME280;65788;52.284;20.890;2023-05-19T04:34:48;101534.80;;;19.98;43.86
76827;BME280;65788;52.284;20.890;2023-05-19T04:37:15;101535.33;;;20.00;43.83
76827;BME280;65788;52.284;20.890;2023-05-19T04:39:42;101538.09;;;19.99;43.90
76827;BME280;65788;52.284;20.890;2023-05-19T04:42:11;101534.45;;;19.98;43.87
76827;BME280;65788;52.284;20.890;2023-05-19T04:44:38;101536.82;;;19.97;43.90
76827;BME280;65788;52.284;20.890;2023-05-19T04:47:07;101537.65;;;19.98;43.87
76827;BME280;65788;52.284;20.890;2023-05-19T04:49:36;101536.84;;;19.98;43.86
76827;BME280;65788;52.284;20.890;2023-05-19T04:52:07;101535.96;;;19.96;43.93
76827;BME280;65788;52.284;20.890;2023-05-19T04:54:36;101535.16;;;19.97;43.86
76827;BME280;65788;52.284;20.890;2023-05-19T04:57:05;101535.19;;;19.97;43.89
76827;BME280;65788;52.284;20.890;2023-05-19T04:59:32;101536.48;;;19.97;43.89
76827;BME280;65788;52.284;20.890;2023-05-19T05:01:59;101536.94;;;19.96;43.91
76827;BME280;65788;52.284;20.890;2023-05-19T05:04:26;101533.79;;;19.96;43.87
76827;BME280;65788;52.284;20.890;2023-05-19T05:06:53;101539.73;;;19.97;43.83
76827;BME280;65788;52.284;20.890;2023-05-19T05:09:20;101542.23;;;19.97;43.91
76827;BME280;65788;52.284;20.890;2023-05-19T05:11:47;101540.81;;;19.98;44.05
76827;BME280;65788;52.284;20.890;2023-05-19T05:14:14;101540.52;;;19.98;44.18
76827;BME280;65788;52.284;20.890;2023-05-19T05:16:42;101542.04;;;19.97;44.81
76827;BME280;65788;52.284;20.890;2023-05-19T05:19:09;101538.56;;;19.95;45.08
76827;BME280;65788;52.284;20.890;2023-05-19T05:21:36;101540.16;;;19.94;44.93
76827;BME280;65788;52.284;20.890;2023-05-19T05:24:04;101538.44;;;19.95;44.92
76827;BME280;65788;52.284;20.890;2023-05-19T05:26:32;101541.30;;;19.95;44.80
76827;BME280;65788;52.284;20.890;2023-05-19T05:29:00;101540.30;;;19.94;44.78
76827;BME280;65788;52.284;20.890;2023-05-19T05:31:27;101538.55;;;19.95;44.85
76827;BME280;65788;52.284;20.890;2023-05-19T05:33:55;101540.66;;;19.96;44.85
76827;BME280;65788;52.284;20.890;2023-05-19T05:36:22;101539.05;;;19.96;44.80
76827;BME280;65788;52.284;20.890;2023-05-19T05:38:48;101539.92;;;19.96;44.82
76827;BME280;65788;52.284;20.890;2023-05-19T05:41:15;101543.32;;;19.97;44.77
76827;BME280;65788;52.284;20.890;2023-05-19T05:43:42;101538.56;;;19.95;44.87
76827;BME280;65788;52.284;20.890;2023-05-19T05:46:09;101537.71;;;19.96;44.86
76827;BME280;65788;52.284;20.890;2023-05-19T05:48:36;101540.59;;;19.97;44.87
76827;BME280;65788;52.284;20.890;2023-05-19T05:51:07;101541.78;;;19.96;44.69
76827;BME280;65788;52.284;20.890;2023-05-19T05:53:39;101542.97;;;19.95;44.70
76827;BME280;65788;52.284;20.890;2023-05-19T05:56:08;101538.44;;;19.95;44.67
76827;BME280;65788;52.284;20.890;2023-05-19T05:58:35;101541.98;;;19.95;44.99
76827;BME280;65788;52.284;20.890;2023-05-19T06:01:03;101540.14;;;19.94;45.67
76827;BME280;65788;52.284;20.890;2023-05-19T06:03:31;101540.27;;;19.95;45.25
76827;BME280;65788;52.284;20.890;2023-05-19T06:05:58;101539.04;;;19.96;45.04
76827;BME280;65788;52.284;20.890;2023-05-19T06:08:26;101540.96;;;19.95;44.89
76827;BME280;65788;52.284;20.890;2023-05-19T06:10:52;101541.98;;;19.94;44.81
76827;BME280;65788;52.284;20.890;2023-05-19T06:13:19;101540.53;;;19.96;44.82
76827;BME280;65788;52.284;20.890;2023-05-19T06:15:50;101542.74;;;19.95;44.84
76827;BME280;65788;52.284;20.890;2023-05-19T06:18:19;101542.45;;;19.96;44.88
76827;BME280;65788;52.284;20.890;2023-05-19T06:20:46;101544.34;;;19.96;45.33
76827;BME280;65788;52.284;20.890;2023-05-19T06:23:13;101545.32;;;19.96;45.95
76827;BME280;65788;52.284;20.890;2023-05-19T06:25:39;101543.14;;;19.95;46.23
76827;BME280;65788;52.284;20.890;2023-05-19T06:28:07;101544.64;;;19.97;46.00
76827;BME280;65788;52.284;20.890;2023-05-19T06:30:34;101546.66;;;19.97;45.85
76827;BME280;65788;52.284;20.890;2023-05-19T06:33:02;101546.90;;;19.96;45.61
76827;BME280;65788;52.284;20.890;2023-05-19T06:35:29;101545.36;;;19.96;45.49
76827;BME280;65788;52.284;20.890;2023-05-19T06:37:56;101546.13;;;19.95;45.42
76827;BME280;65788;52.284;20.890;2023-05-19T06:40:23;101545.54;;;19.97;45.45
76827;BME280;65788;52.284;20.890;2023-05-19T06:42:50;101543.93;;;19.98;45.56
76827;BME280;65788;52.284;20.890;2023-05-19T06:45:17;101546.50;;;19.98;46.46
76827;BME280;65788;52.284;20.890;2023-05-19T06:47:47;101545.21;;;19.98;46.90
76827;BME280;65788;52.284;20.890;2023-05-19T06:50:14;101539.23;;;19.98;46.68
76827;BME280;65788;52.284;20.890;2023-05-19T06:52:41;101542.58;;;19.98;46.28
76827;BME280;65788;52.284;20.890;2023-05-19T06:55:09;101540.35;;;19.98;46.28
76827;BME280;65788;52.284;20.890;2023-05-19T06:57:36;101537.09;;;19.99;46.04
76827;BME280;65788;52.284;20.890;2023-05-19T07:00:03;101535.30;;;19.99;45.84
76827;BME280;65788;52.284;20.890;2023-05-19T07:02:32;101535.15;;;19.99;45.68
76827;BME280;65788;52.284;20.890;2023-05-19T07:04:59;101538.83;;;19.99;45.64
76827;BME280;65788;52.284;20.890;2023-05-19T07:07:26;101539.30;;;19.97;46.04
76827;BME280;65788;52.284;20.890;2023-05-19T07:09:53;101537.60;;;19.98;45.89
76827;BME280;65788;52.284;20.890;2023-05-19T07:12:20;101535.80;;;19.98;45.61
76827;BME280;65788;52.284;20.890;2023-05-19T07:14:47;101533.23;;;19.96;45.55
76827;BME280;65788;52.284;20.890;2023-05-19T07:17:13;101531.65;;;19.95;45.51
76827;BME280;65788;52.284;20.890;2023-05-19T07:19:40;101530.02;;;19.97;45.45
76827;BME280;65788;52.284;20.890;2023-05-19T07:22:07;101527.88;;;19.95;45.44
76827;BME280;65788;52.284;20.890;2023-05-19T07:24:34;101532.54;;;19.96;45.35
76827;BME280;65788;52.284;20.890;2023-05-19T07:27:00;101531.88;;;19.98;45.84
76827;BME280;65788;52.284;20.890;2023-05-19T07:29:27;101535.21;;;20.27;44.52
76827;BME280;65788;52.284;20.890;2023-05-19T07:31:54;101533.73;;;20.38;43.84
76827;BME280;65788;52.284;20.890;2023-05-19T07:34:23;101533.41;;;20.45;43.00
76827;BME280;65788;52.284;20.890;2023-05-19T07:36:50;101536.19;;;20.48;42.92
76827;BME280;65788;52.284;20.890;2023-05-19T07:39:17;101533.60;;;20.50;43.08
76827;BME280;65788;52.284;20.890;2023-05-19T07:41:45;101532.66;;;20.56;43.57
76827;BME280;65788;52.284;20.890;2023-05-19T07:44:18;101535.97;;;20.59;43.82
76827;BME280;65788;52.284;20.890;2023-05-19T07:46:45;101530.73;;;20.65;43.97
76827;BME280;65788;52.284;20.890;2023-05-19T07:49:12;101534.86;;;20.65;42.91
76827;BME280;65788;52.284;20.890;2023-05-19T07:51:39;101535.10;;;20.62;42.64
76827;BME280;65788;52.284;20.890;2023-05-19T07:54:07;101536.95;;;20.63;42.62
76827;BME280;65788;52.284;20.890;2023-05-19T07:56:34;101541.18;;;20.67;42.66
76827;BME280;65788;52.284;20.890;2023-05-19T07:59:02;101537.52;;;20.74;42.65
76827;BME280;65788;52.284;20.890;2023-05-19T08:01:30;101538.58;;;20.72;42.73
76827;BME280;65788;52.284;20.890;2023-05-19T08:03:58;101534.02;;;20.70;42.87
76827;BME280;65788;52.284;20.890;2023-05-19T08:06:24;101536.34;;;20.64;42.36
76827;BME280;65788;52.284;20.890;2023-05-19T08:08:51;101535.90;;;20.67;43.56
76827;BME280;65788;52.284;20.890;2023-05-19T08:11:20;101538.92;;;20.74;43.58
76827;BME280;65788;52.284;20.890;2023-05-19T08:13:47;101534.95;;;20.73;43.15
76827;BME280;65788;52.284;20.890;2023-05-19T08:16:17;101533.10;;;20.68;42.84
76827;BME280;65788;52.284;20.890;2023-05-19T08:18:44;101531.64;;;20.68;42.73
76827;BME280;65788;52.284;20.890;2023-05-19T08:21:11;101532.27;;;20.68;42.46
76827;BME280;65788;52.284;20.890;2023-05-19T08:23:38;101537.11;;;20.69;42.55
76827;BME280;65788;52.284;20.890;2023-05-19T08:26:05;101538.58;;;20.73;42.58
76827;BME280;65788;52.284;20.890;2023-05-19T08:28:32;101539.52;;;20.74;42.40
76827;BME280;65788;52.284;20.890;2023-05-19T08:30:58;101538.27;;;20.77;42.36
76827;BME280;65788;52.284;20.890;2023-05-19T08:33:25;101535.55;;;20.74;42.42
76827;BME280;65788;52.284;20.890;2023-05-19T08:35:52;101539.23;;;20.81;42.34
76827;BME280;65788;52.284;20.890;2023-05-19T08:38:21;101537.52;;;20.91;42.20
76827;BME280;65788;52.284;20.890;2023-05-19T08:40:48;101536.52;;;21.00;41.99
76827;BME280;65788;52.284;20.890;2023-05-19T08:43:15;101526.71;;;21.01;42.31
76827;BME280;65788;52.284;20.890;2023-05-19T08:45:43;101524.92;;;21.02;42.00
76827;BME280;65788;52.284;20.890;2023-05-19T08:48:16;101527.89;;;21.06;41.88
76827;BME280;65788;52.284;20.890;2023-05-19T08:53:36;101527.35;;;21.17;41.56
76827;BME280;65788;52.284;20.890;2023-05-19T08:56:18;101529.17;;;21.23;41.46
76827;BME280;65788;52.284;20.890;2023-05-19T08:58:48;101530.09;;;21.28;41.39
76827;BME280;65788;52.284;20.890;2023-05-19T09:01:15;101531.93;;;21.27;41.35
76827;BME280;65788;52.284;20.890;2023-05-19T09:03:44;101535.02;;;21.29;41.22
76827;BME280;65788;52.284;20.890;2023-05-19T09:06:11;101528.30;;;21.32;41.27
76827;BME280;65788;52.284;20.890;2023-05-19T09:08:40;101530.66;;;21.31;41.28
76827;BME280;65788;52.284;20.890;2023-05-19T09:11:08;101531.93;;;21.28;41.41
76827;BME280;65788;52.284;20.890;2023-05-19T09:13:35;101529.52;;;21.25;41.70
76827;BME280;65788;52.284;20.890;2023-05-19T09:16:03;101529.55;;;21.31;41.37
76827;BME280;65788;52.284;20.890;2023-05-19T09:18:30;101530.49;;;21.37;41.28
76827;BME280;65788;52.284;20.890;2023-05-19T09:20:58;101535.98;;;21.38;41.21
76827;BME280;65788;52.284;20.890;2023-05-19T09:23:27;101532.44;;;21.39;41.31
76827;BME280;65788;52.284;20.890;2023-05-19T09:25:56;101533.36;;;21.36;41.50
76827;BME280;65788;52.284;20.890;2023-05-19T09:28:27;101531.73;;;21.19;42.18
76827;BME280;65788;52.284;20.890;2023-05-19T09:33:33;101529.42;;;21.12;41.60
76827;BME280;65788;52.284;20.890;2023-05-19T09:36:01;101529.02;;;21.09;41.69
76827;BME280;65788;52.284;20.890;2023-05-19T09:38:29;101532.11;;;20.39;46.32
76827;BME280;65788;52.284;20.890;2023-05-19T09:40:56;101529.67;;;21.04;43.25
76827;BME280;65788;52.284;20.890;2023-05-19T09:43:31;101534.09;;;21.43;41.39
76827;BME280;65788;52.284;20.890;2023-05-19T09:46:07;101529.20;;;21.45;41.32
76827;BME280;65788;52.284;20.890;2023-05-19T09:48:35;101528.54;;;21.28;41.20
76827;BME280;65788;52.284;20.890;2023-05-19T09:51:04;101525.98;;;21.39;41.47
76827;BME280;65788;52.284;20.890;2023-05-19T09:53:33;101530.55;;;21.54;41.21
76827;BME280;65788;52.284;20.890;2023-05-19T09:56:01;101530.65;;;21.63;40.87
76827;BME280;65788;52.284;20.890;2023-05-19T09:58:32;101528.87;;;21.67;40.81
76827;BME280;65788;52.284;20.890;2023-05-19T10:01:03;101529.98;;;21.73;40.64
76827;BME280;65788;52.284;20.890;2023-05-19T10:03:30;101529.63;;;21.75;40.62
76827;BME280;65788;52.284;20.890;2023-05-19T10:06:00;101528.75;;;21.71;40.71
76827;BME280;65788;52.284;20.890;2023-05-19T10:08:30;101530.04;;;21.73;40.65
76827;BME280;65788;52.284;20.890;2023-05-19T10:10:59;101529.02;;;21.79;40.62
76827;BME280;65788;52.284;20.890;2023-05-19T10:13:28;101527.27;;;21.83;40.64
76827;BME280;65788;52.284;20.890;2023-05-19T10:15:56;101526.80;;;21.82;40.51
76827;BME280;65788;52.284;20.890;2023-05-19T10:18:23;101526.13;;;21.83;40.54
76827;BME280;65788;52.284;20.890;2023-05-19T10:20:51;101519.52;;;21.85;40.45
76827;BME280;65788;52.284;20.890;2023-05-19T10:23:18;101520.63;;;21.86;40.47
76827;BME280;65788;52.284;20.890;2023-05-19T10:25:46;101517.39;;;21.88;40.54
76827;BME280;65788;52.284;20.890;2023-05-19T10:28:16;101511.52;;;21.90;40.38
76827;BME280;65788;52.284;20.890;2023-05-19T10:30:48;101510.34;;;21.79;40.79
76827;BME280;65788;52.284;20.890;2023-05-19T10:33:17;101507.34;;;21.58;40.75
76827;BME280;65788;52.284;20.890;2023-05-19T10:36:12;101512.84;;;21.52;40.89
76827;BME280;65788;52.284;20.890;2023-05-19T10:38:47;101513.11;;;21.49;41.20
76827;BME280;65788;52.284;20.890;2023-05-19T10:44:52;101511.10;;;21.74;41.30
76827;BME280;65788;52.284;20.890;2023-05-19T10:47:05;101509.75;;;21.83;40.56
76827;BME280;65788;52.284;20.890;2023-05-19T10:49:34;101506.91;;;21.86;40.51
76827;BME280;65788;52.284;20.890;2023-05-19T10:52:02;101508.07;;;21.83;40.56
76827;BME280;65788;52.284;20.890;2023-05-19T10:54:42;101506.31;;;21.82;40.96
76827;BME280;65788;52.284;20.890;2023-05-19T10:57:15;101505.45;;;21.86;40.64
76827;BME280;65788;52.284;20.890;2023-05-19T10:59:43;101504.86;;;21.92;40.40
76827;BME280;65788;52.284;20.890;2023-05-19T11:02:36;101499.33;;;21.91;40.84
76827;BME280;65788;52.284;20.890;2023-05-19T11:05:11;101498.34;;;21.92;40.35
76827;BME280;65788;52.284;20.890;2023-05-19T11:07:41;101498.73;;;21.97;40.37
76827;BME280;65788;52.284;20.890;2023-05-19T11:10:13;101501.70;;;21.97;40.41
76827;BME280;65788;52.284;20.890;2023-05-19T11:12:42;101500.79;;;21.99;40.44
76827;BME280;65788;52.284;20.890;2023-05-19T11:15:14;101503.15;;;21.96;40.36
76827;BME280;65788;52.284;20.890;2023-05-19T11:17:45;101504.35;;;21.95;40.47
76827;BME280;65788;52.284;20.890;2023-05-19T11:20:24;101507.09;;;21.91;40.37
76827;BME280;65788;52.284;20.890;2023-05-19T11:23:04;101504.00;;;21.88;40.50
76827;BME280;65788;52.284;20.890;2023-05-19T11:25:48;101504.95;;;21.88;40.49
76827;BME280;65788;52.284;20.890;2023-05-19T11:28:16;101503.27;;;21.88;40.54
76827;BME280;65788;52.284;20.890;2023-05-19T11:30:46;101507.95;;;21.88;40.63
76827;BME280;65788;52.284;20.890;2023-05-19T11:33:15;101510.04;;;21.81;40.85
76827;BME280;65788;52.284;20.890;2023-05-19T11:35:46;101507.53;;;21.65;40.97
76827;BME280;65788;52.284;20.890;2023-05-19T11:38:16;101508.31;;;21.59;41.10
76827;BME280;65788;52.284;20.890;2023-05-19T11:40:44;101506.83;;;21.58;41.10
76827;BME280;65788;52.284;20.890;2023-05-19T11:43:10;101508.23;;;21.55;41.24
76827;BME280;65788;52.284;20.890;2023-05-19T11:45:38;101508.53;;;21.51;41.36
76827;BME280;65788;52.284;20.890;2023-05-19T11:48:04;101509.39;;;21.50;41.36
76827;BME280;65788;52.284;20.890;2023-05-19T11:50:32;101508.39;;;21.48;41.43
76827;BME280;65788;52.284;20.890;2023-05-19T11:52:59;101510.28;;;21.48;41.44
76827;BME280;65788;52.284;20.890;2023-05-19T11:55:26;101510.05;;;21.44;41.49
76827;BME280;65788;52.284;20.890;2023-05-19T11:58:01;101509.30;;;21.41;41.52
76827;BME280;65788;52.284;20.890;2023-05-19T12:00:29;101510.11;;;21.38;41.55
76827;BME280;65788;52.284;20.890;2023-05-19T12:03:03;101509.01;;;21.36;41.58
76827;BME280;65788;52.284;20.890;2023-05-19T12:05:30;101515.34;;;21.44;41.73
76827;BME280;65788;52.284;20.890;2023-05-19T12:07:57;101512.96;;;21.67;41.15
76827;BME280;65788;52.284;20.890;2023-05-19T12:10:27;101510.06;;;21.72;41.07
76827;BME280;65788;52.284;20.890;2023-05-19T12:12:56;101511.44;;;21.73;41.06
76827;BME280;65788;52.284;20.890;2023-05-19T12:15:26;101512.38;;;21.70;41.03
76827;BME280;65788;52.284;20.890;2023-05-19T12:17:58;101511.58;;;21.78;40.96
76827;BME280;65788;52.284;20.890;2023-05-19T12:20:27;101513.64;;;21.82;40.85
76827;BME280;65788;52.284;20.890;2023-05-19T12:22:54;101512.28;;;21.85;40.81
76827;BME280;65788;52.284;20.890;2023-05-19T12:25:22;101507.98;;;21.84;40.88
76827;BME280;65788;52.284;20.890;2023-05-19T12:27:49;101507.94;;;21.84;40.83
76827;BME280;65788;52.284;20.890;2023-05-19T12:30:25;101511.23;;;21.82;40.92
76827;BME280;65788;52.284;20.890;2023-05-19T12:32:52;101512.09;;;21.82;40.89
76827;BME280;65788;52.284;20.890;2023-05-19T12:35:19;101503.36;;;21.88;41.13
76827;BME280;65788;52.284;20.890;2023-05-19T12:37:48;101503.80;;;21.94;40.85
76827;BME280;65788;52.284;20.890;2023-05-19T12:40:16;101504.27;;;21.96;40.60
76827;BME280;65788;52.284;20.890;2023-05-19T12:42:44;101501.70;;;21.97;40.61
76827;BME280;65788;52.284;20.890;2023-05-19T12:45:11;101500.06;;;21.98;40.59
76827;BME280;65788;52.284;20.890;2023-05-19T12:47:37;101503.45;;;21.99;40.63
76827;BME280;65788;52.284;20.890;2023-05-19T12:50:06;101502.30;;;21.97;40.70
76827;BME280;65788;52.284;20.890;2023-05-19T12:52:41;101500.73;;;21.88;40.86
76827;BME280;65788;52.284;20.890;2023-05-19T12:55:09;101501.52;;;21.63;41.17
76827;BME280;65788;52.284;20.890;2023-05-19T12:57:39;101497.58;;;21.63;41.21
76827;BME280;65788;52.284;20.890;2023-05-19T13:00:07;101494.52;;;21.60;41.37
76827;BME280;65788;52.284;20.890;2023-05-19T13:05:21;101496.45;;;21.55;41.64
76827;BME280;65788;52.284;20.890;2023-05-19T13:08:00;101497.83;;;21.58;41.43
76827;BME280;65788;52.284;20.890;2023-05-19T13:10:28;101503.25;;;21.74;41.26
76827;BME280;65788;52.284;20.890;2023-05-19T13:12:57;101501.48;;;21.85;41.07
76827;BME280;65788;52.284;20.890;2023-05-19T13:15:27;101497.44;;;21.86;41.10
76827;BME280;65788;52.284;20.890;2023-05-19T13:18:01;101494.95;;;21.88;41.27